createdAt,value
2023-03-26T00:01:16.109Z,99974.06
2023-03-26T00:03:47.270Z,99975.72
2023-03-26T00:06:16.811Z,99979.13
2023-03-26T00:08:45.931Z,99979.03
2023-03-26T00:11:14.843Z,99981.88
2023-03-26T00:13:44.081Z,99983.84
2023-03-26T00:16:19.809Z,99988.22
2023-03-26T00:18:47.485Z,99995.28
2023-03-26T00:21:15.870Z,99998.72
2023-03-26T00:23:43.301Z,99992.06
2023-03-26T00:26:11.366Z,100001.59
2023-03-26T00:28:40.694Z,100001.50
2023-03-26T00:31:10.895Z,99997.97
2023-03-26T00:33:40.720Z,99999.84
2023-03-26T00:36:14.886Z,100003.44
2023-03-26T00:38:43.201Z,99997.44
2023-03-26T00:41:23.167Z,99996.75
2023-03-26T00:43:53.586Z,99991.66
2023-03-26T00:46:20.452Z,100010.63
2023-03-26T00:48:47.636Z,99992.22
2023-03-26T00:51:16.493Z,100004.31
2023-03-26T00:53:45.465Z,99987.25
2023-03-26T00:56:12.949Z,100004.75
2023-03-26T00:58:41.214Z,100000.59
2023-03-26T01:01:18.744Z,99996.09
2023-03-26T01:04:00.823Z,99996.28
2023-03-26T01:06:36.207Z,99998.81
2023-03-26T01:09:19.148Z,99999.78
2023-03-26T01:11:46.471Z,100011.59
2023-03-26T01:14:18.493Z,100003.50
2023-03-26T01:16:52.574Z,100004.84
2023-03-26T01:19:30.185Z,100008.22
2023-03-26T01:21:58.508Z,100010.72
2023-03-26T01:24:25.400Z,100006.19
2023-03-26T01:27:01.122Z,100017.53
2023-03-26T01:29:39.611Z,100018.53
2023-03-26T01:32:12.355Z,100019.44
2023-03-26T01:35:08.056Z,100024.97
2023-03-26T01:37:43.756Z,100022.63
2023-03-26T01:40:38.827Z,100028.06
2023-03-26T01:43:16.484Z,100019.50
2023-03-26T01:45:46.630Z,100018.09
2023-03-26T01:48:14.130Z,100019.25
2023-03-26T01:50:41.451Z,100001.75
2023-03-26T01:53:11.926Z,100021.16
2023-03-26T01:56:02.265Z,100015.88
2023-03-26T01:58:38.300Z,100016.00
2023-03-26T02:01:24.785Z,100009.94
2023-03-26T02:04:15.873Z,100026.41
2023-03-26T02:06:53.003Z,100020.19
2023-03-26T02:09:25.076Z,100019.13
2023-03-26T02:11:52.593Z,100019.97
2023-03-26T02:14:19.429Z,100022.78
2023-03-26T02:16:47.216Z,100015.22
2023-03-26T02:19:22.120Z,100022.25
2023-03-26T02:21:52.234Z,100032.75
2023-03-26T02:24:20.195Z,100031.28
2023-03-26T02:26:47.028Z,100025.94
2023-03-26T02:29:14.694Z,100018.88
2023-03-26T02:31:41.564Z,100027.72
2023-03-26T02:34:08.337Z,100025.16
2023-03-26T02:36:36.349Z,100025.06
2023-03-26T02:39:03.653Z,100016.59
2023-03-26T02:41:30.615Z,100017.59
2023-03-26T02:43:57.376Z,100026.56
2023-03-26T02:46:24.097Z,100021.50
2023-03-26T02:48:51.401Z,100027.38
2023-03-26T02:51:18.499Z,100025.78
2023-03-26T02:53:46.204Z,100024.91
2023-03-26T02:56:13.305Z,100031.81
2023-03-26T02:58:40.056Z,100029.09
2023-03-26T03:01:06.907Z,100031.69
2023-03-26T03:03:34.738Z,100029.22
2023-03-26T03:06:01.470Z,100039.63
2023-03-26T03:08:28.641Z,100035.34
2023-03-26T03:11:07.356Z,100026.59
2023-03-26T03:13:34.265Z,100026.50
2023-03-26T03:16:00.988Z,100029.94
2023-03-26T03:18:28.012Z,100032.59
2023-03-26T03:20:54.788Z,100034.28
2023-03-26T03:23:21.570Z,100035.78
2023-03-26T03:25:51.027Z,100027.03
2023-03-26T03:28:18.490Z,100037.25
2023-03-26T03:30:45.982Z,100037.16
2023-03-26T03:33:13.364Z,100046.75
2023-03-26T03:35:41.778Z,100046.00
2023-03-26T03:38:08.530Z,100050.25
2023-03-26T03:40:35.452Z,100047.81
2023-03-26T03:43:02.195Z,100052.78
2023-03-26T03:45:29.416Z,100052.13
2023-03-26T03:47:56.465Z,100055.56
2023-03-26T03:50:23.317Z,100051.38
2023-03-26T03:52:50.838Z,100054.84
2023-03-26T03:55:17.575Z,100057.44
2023-03-26T03:57:44.791Z,100062.63
2023-03-26T04:00:12.267Z,100063.56
2023-03-26T04:02:43.280Z,100066.06
2023-03-26T04:05:11.808Z,100058.22
2023-03-26T04:07:39.365Z,100070.34
2023-03-26T04:10:07.012Z,100074.47
2023-03-26T04:12:33.781Z,100063.31
2023-03-26T04:15:00.702Z,100068.38
2023-03-26T04:17:27.649Z,100071.06
2023-03-26T04:19:55.210Z,100069.19
2023-03-26T04:22:22.509Z,100075.84
2023-03-26T04:24:49.944Z,100073.44
2023-03-26T04:27:20.455Z,100075.03
2023-03-26T04:29:50.484Z,100077.00
2023-03-26T04:32:34.550Z,100068.31
2023-03-26T04:35:05.424Z,100070.78
2023-03-26T04:37:39.784Z,100070.13
2023-03-26T04:40:18.548Z,100075.31
2023-03-26T04:42:48.265Z,100072.94
2023-03-26T04:45:17.891Z,100071.06
2023-03-26T04:47:46.731Z,100080.81
2023-03-26T04:50:13.649Z,100072.84
2023-03-26T04:52:42.519Z,100070.28
2023-03-26T04:55:43.585Z,100078.84
2023-03-26T04:58:10.386Z,100070.94
2023-03-26T05:00:37.191Z,100072.63
2023-03-26T05:03:04.048Z,100075.97
2023-03-26T05:05:30.985Z,100065.72
2023-03-26T05:07:57.947Z,100074.34
2023-03-26T05:10:24.727Z,100072.69
2023-03-26T05:12:51.545Z,100076.84
2023-03-26T05:15:18.552Z,100071.81
2023-03-26T05:17:45.330Z,100061.50
2023-03-26T05:20:24.698Z,100064.09
2023-03-26T05:22:51.618Z,100068.28
2023-03-26T05:25:19.360Z,100069.88
2023-03-26T05:27:46.965Z,100066.38
2023-03-26T05:30:16.969Z,100074.06
2023-03-26T05:32:43.879Z,100075.78
2023-03-26T05:35:11.912Z,100078.91
2023-03-26T05:37:39.127Z,100066.97
2023-03-26T05:40:17.410Z,100076.56
2023-03-26T05:42:44.984Z,100083.50
2023-03-26T05:45:15.121Z,100075.63
2023-03-26T05:47:41.917Z,100080.91
2023-03-26T05:50:09.537Z,100078.19
2023-03-26T05:52:36.222Z,100081.47
2023-03-26T05:55:03.569Z,100083.84
2023-03-26T05:57:31.615Z,100082.84
2023-03-26T05:59:58.410Z,100085.25
2023-03-26T06:02:25.263Z,100087.81
2023-03-26T06:04:52.801Z,100083.28
2023-03-26T06:07:19.963Z,100088.28
2023-03-26T06:09:47.093Z,100080.31
2023-03-26T06:12:14.979Z,100086.47
2023-03-26T06:14:45.944Z,100084.75
2023-03-26T06:17:13.489Z,100089.03
2023-03-26T06:19:40.124Z,100085.47
2023-03-26T06:22:06.859Z,100084.66
2023-03-26T06:24:34.565Z,100093.25
2023-03-26T06:27:01.315Z,100088.13
2023-03-26T06:29:28.186Z,100088.84
2023-03-26T06:31:55.162Z,100090.47
2023-03-26T06:34:21.892Z,100091.25
2023-03-26T06:36:49.021Z,100099.97
2023-03-26T06:39:17.985Z,100097.34
2023-03-26T06:41:44.710Z,100093.88
2023-03-26T06:44:11.562Z,100099.09
2023-03-26T06:46:38.425Z,100105.00
2023-03-26T06:49:05.658Z,100096.91
2023-03-26T06:51:32.454Z,100098.94
2023-03-26T06:53:59.200Z,100116.13
2023-03-26T06:56:25.988Z,100110.66
2023-03-26T06:58:52.743Z,100114.94
2023-03-26T07:01:19.542Z,100114.88
2023-03-26T07:03:46.346Z,100112.06
2023-03-26T07:06:13.209Z,100116.28
2023-03-26T07:08:40.033Z,100113.81
2023-03-26T07:11:07.054Z,100104.97
2023-03-26T07:13:33.770Z,100103.03
2023-03-26T07:16:00.745Z,100101.59
2023-03-26T07:18:27.577Z,100108.75
2023-03-26T07:20:54.923Z,100095.88
2023-03-26T07:23:22.043Z,100099.25
2023-03-26T07:25:49.856Z,100102.47
2023-03-26T07:28:36.778Z,100094.56
2023-03-26T07:31:17.360Z,100102.44
2023-03-26T07:33:54.085Z,100097.72
2023-03-26T07:36:33.303Z,100102.53
2023-03-26T07:39:22.355Z,100103.03
2023-03-26T07:42:09.248Z,100095.31
2023-03-26T07:44:40.698Z,100104.41
2023-03-26T07:47:26.193Z,100099.84
2023-03-26T07:49:55.618Z,100102.06
2023-03-26T07:52:26.722Z,100106.19
2023-03-26T07:54:53.964Z,100106.06
2023-03-26T07:57:39.157Z,100117.97
2023-03-26T08:00:22.550Z,100106.00
2023-03-26T08:03:01.797Z,100103.38
2023-03-26T08:05:34.858Z,100112.31
2023-03-26T08:08:10.754Z,100109.59
2023-03-26T08:11:05.220Z,100108.91
2023-03-26T08:13:39.342Z,100109.19
2023-03-26T08:16:24.438Z,100105.59
2023-03-26T08:18:55.304Z,100099.31
2023-03-26T08:21:22.092Z,100106.28
2023-03-26T08:24:02.182Z,100113.31
2023-03-26T08:26:38.789Z,100103.19
2023-03-26T08:29:18.939Z,100106.88
2023-03-26T08:31:48.961Z,100101.06
2023-03-26T08:34:15.993Z,100101.91
2023-03-26T08:36:43.120Z,100105.09
2023-03-26T08:39:10.030Z,100102.16
2023-03-26T08:41:55.624Z,100101.44
2023-03-26T08:45:01.270Z,100102.88
2023-03-26T08:47:57.296Z,100098.41
2023-03-26T08:50:48.875Z,100104.75
2023-03-26T08:53:36.817Z,100104.66
2023-03-26T08:56:24.392Z,100098.41
2023-03-26T08:59:36.400Z,100091.84
2023-03-26T09:02:36.590Z,100090.97
2023-03-26T09:05:29.090Z,100084.78
2023-03-26T09:08:33.421Z,100085.38
2023-03-26T09:11:15.261Z,100082.41
2023-03-26T09:14:06.483Z,100075.19
2023-03-26T09:17:01.115Z,100082.50
2023-03-26T09:20:05.430Z,100076.66
2023-03-26T09:22:48.273Z,100068.88
2023-03-26T09:25:48.586Z,100070.47
2023-03-26T09:28:33.691Z,100067.47
2023-03-26T09:31:28.479Z,100065.16
2023-03-26T09:34:26.504Z,100063.69
2023-03-26T09:37:15.957Z,100067.41
2023-03-26T09:40:10.870Z,100059.84
2023-03-26T09:42:47.657Z,100062.44
2023-03-26T09:46:11.747Z,100063.09
2023-03-26T09:49:00.058Z,100069.97
2023-03-26T09:51:57.589Z,100062.53
2023-03-26T09:54:29.860Z,100066.72
2023-03-26T09:56:58.700Z,100071.69
2023-03-26T09:59:42.623Z,100073.25
2023-03-26T10:02:46.107Z,100064.34
2023-03-26T10:05:20.706Z,100072.34
2023-03-26T10:08:25.166Z,100063.84
2023-03-26T10:11:13.839Z,100065.59
2023-03-26T10:14:04.857Z,100063.38
2023-03-26T10:16:37.056Z,100073.25
2023-03-26T10:19:09.596Z,100076.47
2023-03-26T10:22:17.913Z,100073.25
2023-03-26T10:25:32.887Z,100061.06
2023-03-26T10:28:21.135Z,100061.88
2023-03-26T10:31:25.613Z,100060.13
2023-03-26T10:34:06.189Z,100064.50
2023-03-26T10:36:41.653Z,100051.94
2023-03-26T10:39:39.310Z,100056.56
2023-03-26T10:42:34.272Z,100057.56
2023-03-26T10:45:31.537Z,100055.72
2023-03-26T10:48:24.721Z,100059.09
2023-03-26T10:51:13.094Z,100058.81
2023-03-26T10:54:09.118Z,100064.72
2023-03-26T10:56:47.890Z,100065.66
2023-03-26T10:59:17.219Z,100064.72
2023-03-26T11:02:21.147Z,100064.22
2023-03-26T11:05:04.268Z,100062.91
2023-03-26T11:07:43.206Z,100056.66
2023-03-26T11:10:21.695Z,100050.66
2023-03-26T11:13:19.014Z,100060.50
2023-03-26T11:15:57.777Z,100051.34
2023-03-26T11:18:32.707Z,100049.88
2023-03-26T11:21:24.283Z,100055.78
2023-03-26T11:24:06.501Z,100046.28
2023-03-26T11:26:49.260Z,100051.03
2023-03-26T11:29:31.576Z,100043.22
2023-03-26T11:32:11.147Z,100050.28
2023-03-26T11:34:47.216Z,100052.69
2023-03-26T11:37:34.476Z,100053.41
2023-03-26T11:40:06.620Z,100045.38
2023-03-26T11:42:33.495Z,100045.97
2023-03-26T11:45:05.338Z,100036.41
2023-03-26T11:47:48.844Z,100036.28
2023-03-26T11:50:30.094Z,100036.72
2023-03-26T11:53:10.780Z,100030.81
2023-03-26T11:55:42.101Z,100031.56
2023-03-26T11:58:26.296Z,100031.19
2023-03-26T12:00:54.969Z,100023.88
2023-03-26T12:03:21.854Z,100023.66
2023-03-26T12:05:58.181Z,100018.53
2023-03-26T12:08:34.012Z,100023.31
2023-03-26T12:11:06.641Z,100008.91
2023-03-26T12:13:42.089Z,100002.59
2023-03-26T12:16:16.073Z,100000.03
2023-03-26T12:18:45.521Z,99988.53
2023-03-26T12:21:18.342Z,99981.66
2023-03-26T12:24:01.199Z,99984.06
2023-03-26T12:26:37.497Z,99979.41
2023-03-26T12:29:19.294Z,99988.69
2023-03-26T12:31:54.526Z,99978.88
2023-03-26T12:34:23.830Z,99982.00
2023-03-26T12:36:56.637Z,99988.50
2023-03-26T12:40:10.665Z,99983.75
2023-03-26T12:44:51.502Z,99985.69
2023-03-26T12:45:32.007Z,99980.28
2023-03-26T12:48:04.045Z,99987.00
2023-03-26T12:50:55.422Z,99984.78
2023-03-26T12:54:04.562Z,99991.72
2023-03-26T12:56:47.934Z,99983.22
2023-03-26T12:59:23.998Z,99988.72
2023-03-26T13:01:56.412Z,99985.91
2023-03-26T13:04:34.408Z,99984.06
2023-03-26T13:07:11.121Z,99978.97
2023-03-26T13:10:11.996Z,99981.91
2023-03-26T13:13:01.581Z,99974.22
2023-03-26T13:15:52.632Z,99974.28
2023-03-26T13:18:37.437Z,99968.63
2023-03-26T13:21:12.812Z,99968.78
2023-03-26T13:23:56.586Z,99969.72
2023-03-26T13:26:57.648Z,99971.25
2023-03-26T13:29:42.057Z,99971.19
2023-03-26T13:32:21.016Z,99972.03
2023-03-26T13:34:56.920Z,99970.63
2023-03-26T13:37:35.178Z,99964.59
2023-03-26T13:40:28.040Z,99965.38
2023-03-26T13:43:13.508Z,99956.28
2023-03-26T13:45:55.127Z,99960.06
2023-03-26T13:48:27.287Z,99954.19
2023-03-26T13:50:58.403Z,99956.59
2023-03-26T13:53:32.605Z,99957.91
2023-03-26T13:56:00.540Z,99950.41
2023-03-26T13:58:34.786Z,99954.50
2023-03-26T14:01:22.007Z,99946.22
2023-03-26T14:04:16.177Z,99952.88
2023-03-26T14:07:09.565Z,99939.75
2023-03-26T14:09:46.652Z,99943.31
2023-03-26T14:12:30.362Z,99946.84
2023-03-26T14:15:04.372Z,99933.41
2023-03-26T14:17:46.673Z,99945.09
2023-03-26T14:20:35.101Z,99945.47
2023-03-26T14:23:07.640Z,99940.84
2023-03-26T14:25:43.535Z,99940.22
2023-03-26T14:28:44.276Z,99934.78
2023-03-26T14:31:44.833Z,99937.19
2023-03-26T14:34:38.614Z,99927.75
2023-03-26T14:37:39.369Z,99928.00
2023-03-26T14:40:25.367Z,99931.41
2023-03-26T14:43:10.314Z,99938.34
2023-03-26T14:45:42.956Z,99931.25
2023-03-26T14:48:30.849Z,99925.22
2023-03-26T14:51:45.580Z,99922.09
2023-03-26T14:54:17.362Z,99929.53
2023-03-26T14:57:13.372Z,99929.00
2023-03-26T14:59:51.488Z,99924.03
2023-03-26T15:02:55.037Z,99917.94
2023-03-26T15:05:43.070Z,99920.63
2023-03-26T15:08:34.574Z,99919.94
2023-03-26T15:11:21.159Z,99916.97
2023-03-26T15:13:48.040Z,99919.84
2023-03-26T15:16:51.555Z,99923.16
2023-03-26T15:19:33.479Z,99919.41
2023-03-26T15:22:20.624Z,99933.66
2023-03-26T15:25:11.963Z,99918.63
2023-03-26T15:28:13.620Z,99925.41
2023-03-26T15:31:10.050Z,99914.59
2023-03-26T15:33:54.989Z,99922.16
2023-03-26T15:36:24.889Z,99912.81
2023-03-26T15:39:11.827Z,99916.28
2023-03-26T15:41:47.535Z,99919.53
2023-03-26T15:44:54.129Z,99914.00
2023-03-26T15:47:40.343Z,99919.94
2023-03-26T15:50:27.236Z,99916.47
2023-03-26T15:53:23.864Z,99911.44
2023-03-26T15:56:09.097Z,99909.13
2023-03-26T15:58:45.397Z,99903.81
2023-03-26T16:01:27.258Z,99908.13
2023-03-26T16:04:18.690Z,99907.19
2023-03-26T16:06:48.344Z,99902.56
2023-03-26T16:09:21.108Z,99903.72
2023-03-26T16:12:12.594Z,99899.72
2023-03-26T16:14:47.051Z,99904.75
2023-03-26T16:17:20.799Z,99909.16
2023-03-26T16:19:50.603Z,99903.50
2023-03-26T16:22:43.132Z,99907.97
2023-03-26T16:25:27.669Z,99914.91
2023-03-26T16:28:10.917Z,99909.88
2023-03-26T16:30:39.118Z,99914.66
2023-03-26T16:33:36.122Z,99915.69
2023-03-26T16:36:14.312Z,99918.44
2023-03-26T16:39:07.553Z,99918.66
2023-03-26T16:41:56.604Z,99926.50
2023-03-26T16:44:39.152Z,99930.13
2023-03-26T16:47:24.627Z,99925.56
2023-03-26T16:50:09.571Z,99921.66
2023-03-26T16:52:42.901Z,99932.19
2023-03-26T16:55:27.002Z,99924.34
2023-03-26T16:57:54.013Z,99937.66
2023-03-26T17:00:29.995Z,99926.50
2023-03-26T17:03:01.693Z,99936.91
2023-03-26T17:05:56.753Z,99930.16
2023-03-26T17:08:42.785Z,99930.94
2023-03-26T17:11:27.689Z,99935.84
2023-03-26T17:14:03.801Z,99935.25
2023-03-26T17:16:46.079Z,99940.97
2023-03-26T17:19:24.361Z,99940.91
2023-03-26T17:22:21.649Z,99941.84
2023-03-26T17:24:58.122Z,99943.78
2023-03-26T17:27:36.602Z,99949.78
2023-03-26T17:30:41.239Z,99955.53
2023-03-26T17:33:27.028Z,99960.06
2023-03-26T17:36:12.207Z,99957.13
2023-03-26T17:38:45.211Z,99960.44
2023-03-26T17:41:15.855Z,99957.81
2023-03-26T17:43:52.449Z,99964.50
2023-03-26T17:46:22.354Z,99964.56
2023-03-26T17:49:17.191Z,99968.03
2023-03-26T17:51:56.683Z,99968.50
2023-03-26T17:54:27.975Z,99970.59
2023-03-26T17:56:59.934Z,99976.69
2023-03-26T17:59:28.592Z,99970.00
2023-03-26T18:02:01.299Z,99974.66
2023-03-26T18:04:35.235Z,99975.22
2023-03-26T18:07:20.892Z,99979.31
2023-03-26T18:09:56.824Z,99977.16
2023-03-26T18:12:41.634Z,99978.06
2023-03-26T18:15:38.073Z,99982.44
2023-03-26T18:18:10.453Z,99983.75
2023-03-26T18:20:38.113Z,99987.78
2023-03-26T18:23:22.289Z,99981.25
2023-03-26T18:26:14.240Z,99992.84
2023-03-26T18:28:44.230Z,99988.88
2023-03-26T18:31:18.889Z,99994.59
2023-03-26T18:33:49.947Z,99987.13
2023-03-26T18:36:19.858Z,99983.97
2023-03-26T18:38:49.061Z,99988.19
2023-03-26T18:41:27.613Z,99991.72
2023-03-26T18:43:55.521Z,99993.91
2023-03-26T18:46:24.306Z,99996.38
2023-03-26T18:48:52.386Z,99991.81
2023-03-26T18:51:23.377Z,99997.78
2023-03-26T18:53:56.934Z,99996.66
2023-03-26T18:56:39.870Z,99998.41
2023-03-26T18:59:20.696Z,99997.78
2023-03-26T19:01:48.985Z,100003.47
2023-03-26T19:04:17.240Z,99997.03
2023-03-26T19:06:45.018Z,99997.16
2023-03-26T19:09:30.196Z,100004.63
2023-03-26T19:12:05.584Z,99997.94
2023-03-26T19:14:37.050Z,99998.06
2023-03-26T19:17:06.023Z,99994.66
2023-03-26T19:19:37.026Z,99999.19
2023-03-26T19:22:08.858Z,99997.75
2023-03-26T19:24:35.942Z,100006.19
2023-03-26T19:27:03.719Z,100000.38
2023-03-26T19:29:34.534Z,99989.78
2023-03-26T19:32:06.491Z,100003.34
2023-03-26T19:34:40.135Z,99998.19
2023-03-26T19:37:25.434Z,99999.75
2023-03-26T19:39:54.626Z,100005.88
2023-03-26T19:42:44.178Z,100007.09
2023-03-26T19:45:23.367Z,100009.72
2023-03-26T19:48:03.660Z,100007.03
2023-03-26T19:50:43.043Z,100006.25
2023-03-26T19:53:19.647Z,100008.31
2023-03-26T19:56:13.393Z,100006.59
2023-03-26T19:58:41.791Z,100010.28
2023-03-26T20:01:18.984Z,100010.47
2023-03-26T20:03:48.645Z,100010.06
2023-03-26T20:06:18.883Z,100004.75
2023-03-26T20:08:46.858Z,100012.72
2023-03-26T20:11:33.561Z,100015.41
2023-03-26T20:14:01.330Z,100018.41
2023-03-26T20:16:33.755Z,100026.28
2023-03-26T20:19:04.762Z,100020.34
2023-03-26T20:21:41.358Z,100019.88
2023-03-26T20:24:13.240Z,100025.16
2023-03-26T20:26:40.108Z,100028.81
2023-03-26T20:29:06.882Z,100040.34
2023-03-26T20:31:33.948Z,100038.91
2023-03-26T20:34:00.839Z,100052.03
2023-03-26T20:36:33.916Z,100055.84
2023-03-26T20:39:06.177Z,100045.75
2023-03-26T20:41:34.563Z,100053.03
2023-03-26T20:44:05.092Z,100056.84
2023-03-26T20:46:33.319Z,100055.38
2023-03-26T20:49:00.302Z,100063.44
2023-03-26T20:51:28.964Z,100061.97
2023-03-26T20:53:56.599Z,100071.63
2023-03-26T20:56:23.878Z,100071.81
2023-03-26T20:59:03.659Z,100074.50
2023-03-26T21:01:35.001Z,100074.50
2023-03-26T21:04:04.445Z,100084.38
2023-03-26T21:06:31.665Z,100077.28
2023-03-26T21:08:58.815Z,100077.44
2023-03-26T21:11:53.912Z,100089.41
2023-03-26T21:14:44.361Z,100089.50
2023-03-26T21:17:18.114Z,100091.31
2023-03-26T21:19:45.640Z,100089.63
2023-03-26T21:22:36.070Z,100095.91
2023-03-26T21:25:08.493Z,100103.69
2023-03-26T21:27:46.265Z,100105.75
2023-03-26T21:30:16.710Z,100105.69
2023-03-26T21:32:45.667Z,100110.03
2023-03-26T21:35:13.848Z,100109.25
2023-03-26T21:37:43.189Z,100111.94
2023-03-26T21:40:15.173Z,100116.44
2023-03-26T21:42:43.544Z,100117.44
2023-03-26T21:45:11.161Z,100119.28
2023-03-26T21:47:38.026Z,100124.66
2023-03-26T21:50:06.873Z,100122.06
2023-03-26T21:52:34.371Z,100119.69
2023-03-26T21:55:03.777Z,100118.13
2023-03-26T21:57:50.848Z,100124.00
2023-03-26T22:00:19.334Z,100125.00
2023-03-26T22:03:14.974Z,100126.53
2023-03-26T22:05:51.082Z,100125.78
2023-03-26T22:08:34.962Z,100113.66
2023-03-26T22:11:01.715Z,100121.47
2023-03-26T22:13:28.472Z,100120.56
2023-03-26T22:15:56.963Z,100120.56
2023-03-26T22:18:26.167Z,100128.59
2023-03-26T22:20:53.392Z,100127.69
2023-03-26T22:23:20.322Z,100126.00
2023-03-26T22:25:47.086Z,100126.91
2023-03-26T22:28:14.071Z,100134.84
2023-03-26T22:30:41.690Z,100129.66
2023-03-26T22:33:12.245Z,100122.22
2023-03-26T22:35:42.203Z,100130.19
2023-03-26T22:38:09.942Z,100132.91
2023-03-26T22:40:36.777Z,100135.56
2023-03-26T22:43:03.535Z,100135.63
2023-03-26T22:45:30.351Z,100138.34
2023-03-26T22:48:03.499Z,100142.75
2023-03-26T22:50:31.800Z,100141.13
2023-03-26T22:52:58.448Z,100142.16
2023-03-26T22:55:28.750Z,100143.19
2023-03-26T22:57:56.523Z,100140.59
2023-03-26T23:00:23.423Z,100150.97
2023-03-26T23:02:50.222Z,100144.22
2023-03-26T23:05:19.666Z,100148.53
2023-03-26T23:07:47.546Z,100152.94
2023-03-26T23:10:14.415Z,100151.41
2023-03-26T23:12:41.735Z,100159.16
2023-03-26T23:15:09.963Z,100160.13
2023-03-26T23:17:37.749Z,100167.09
2023-03-26T23:20:15.453Z,100168.84
2023-03-26T23:22:43.196Z,100172.50
2023-03-26T23:25:10.432Z,100176.84
2023-03-26T23:27:37.871Z,100174.25
2023-03-26T23:30:05.943Z,100175.25
2023-03-26T23:32:33.250Z,100187.31
2023-03-26T23:35:00.150Z,100190.84
2023-03-26T23:37:29.585Z,100197.06
2023-03-26T23:39:56.299Z,100196.25
2023-03-26T23:42:28.576Z,100205.69
2023-03-26T23:44:56.973Z,100216.97
2023-03-26T23:47:24.017Z,100214.41
2023-03-26T23:49:51.043Z,100224.78
2023-03-26T23:52:17.896Z,100223.16
2023-03-26T23:54:45.270Z,100224.06
2023-03-26T23:57:12.151Z,100232.75
2023-03-26T23:59:41.712Z,100246.75
